Time;durP1;ratioP1;P1;durP2;ratioP2;P2;SDS_P1;SDS_P2;PMS_P1;PMS_P2;Temp;Humidity;BMP_temperature;BMP_pressure;BME280_temperature;BME280_humidity;BME280_pressure;Samples;Min_cycle;Max_cycle;Signal;HPM_P1;HPM_P2
2023/12/31 00:01:46;;;;;;;3.07;1.20;;;15.40;99.90;;;;;;5057902;28;20184;-94
2023/12/31 00:04:32;;;;;;;1.27;1.17;;;15.30;99.90;;;;;;5060399;28;20190;-94
2023/12/31 00:07:13;;;;;;;3.00;1.20;;;15.30;99.90;;;;;;5034736;28;20179;-94
2023/12/31 00:09:39;;;;;;;3.00;1.37;;;15.30;99.90;;;;;;5065271;28;20163;-96
2023/12/31 00:12:11;;;;;;;2.10;1.20;;;15.30;99.90;;;;;;5077863;28;20175;-94
2023/12/31 00:14:49;;;;;;;2.40;1.10;;;15.30;99.90;;;;;;5067235;28;20213;-94
2023/12/31 00:17:18;;;;;;;1.43;1.27;;;15.30;99.90;;;;;;5076792;28;20226;-94
2023/12/31 00:19:51;;;;;;;1.70;1.30;;;15.30;99.90;;;;;;5064607;28;20179;-96
2023/12/31 00:22:19;;;;;;;1.40;1.17;;;15.30;99.90;;;;;;5058924;28;20203;-94
2023/12/31 00:27:56;;;;;;;1.83;1.30;;;15.30;99.90;;;;;;5096141;28;20197;-95
2023/12/31 00:33:56;;;;;;;3.73;1.30;;;15.20;99.90;;;;;;5077437;28;20192;-94
2023/12/31 00:36:26;;;;;;;1.43;1.17;;;15.30;99.90;;;;;;5041196;28;20565;-93
2023/12/31 00:38:53;;;;;;;1.83;1.30;;;15.30;99.90;;;;;;5051424;28;20197;-94
2023/12/31 00:41:22;;;;;;;1.67;1.23;;;15.30;99.90;;;;;;5073845;28;20175;-94
2023/12/31 00:43:51;;;;;;;1.07;0.97;;;15.30;99.90;;;;;;5063118;28;20198;-93
2023/12/31 00:46:19;;;;;;;1.80;1.30;;;15.20;99.90;;;;;;5074059;28;20176;-93
2023/12/31 00:48:48;;;;;;;1.50;1.20;;;15.30;99.90;;;;;;5063839;28;20236;-94
2023/12/31 00:51:21;;;;;;;2.50;1.20;;;15.30;99.90;;;;;;5080201;28;20182;-94
2023/12/31 00:53:47;;;;;;;1.50;1.20;;;15.20;99.90;;;;;;5081771;28;20609;-94
2023/12/31 00:56:33;;;;;;;1.70;1.30;;;15.30;99.90;;;;;;5082346;28;20195;-94
2023/12/31 00:59:04;;;;;;;1.40;1.30;;;15.20;99.90;;;;;;5066305;28;20216;-95
2023/12/31 01:01:34;;;;;;;2.00;1.20;;;15.20;99.90;;;;;;5070422;28;20171;-94
2023/12/31 01:04:03;;;;;;;1.60;1.30;;;15.20;99.90;;;;;;5064988;28;20278;-94
2023/12/31 01:06:51;;;;;;;2.20;1.50;;;15.20;99.90;;;;;;5094386;28;20270;-94
2023/12/31 01:09:17;;;;;;;1.63;1.30;;;15.20;99.90;;;;;;5052349;28;20183;-94
2023/12/31 01:11:43;;;;;;;2.80;1.30;;;15.20;99.90;;;;;;5076069;28;20428;-95
2023/12/31 01:14:14;;;;;;;1.40;1.10;;;15.20;99.90;;;;;;5064280;28;20187;-93
2023/12/31 01:19:37;;;;;;;1.63;1.23;;;15.20;99.90;;;;;;5069236;28;20297;-93
2023/12/31 01:22:22;;;;;;;2.20;1.40;;;15.20;99.90;;;;;;5066766;28;20257;-94
2023/12/31 01:25:09;;;;;;;1.17;1.07;;;15.20;99.90;;;;;;5081984;28;20163;-94
2023/12/31 01:27:42;;;;;;;1.47;1.10;;;15.20;99.90;;;;;;5069541;28;20220;-94
2023/12/31 01:30:11;;;;;;;1.43;1.20;;;15.20;99.90;;;;;;5063248;28;20180;-93
2023/12/31 01:32:36;;;;;;;1.40;1.30;;;15.20;99.90;;;;;;5071146;28;20176;-93
2023/12/31 01:35:06;;;;;;;1.27;1.17;;;15.20;99.90;;;;;;5062261;28;20184;-94
2023/12/31 01:37:41;;;;;;;1.83;1.30;;;15.20;99.90;;;;;;5072077;28;20455;-93
2023/12/31 01:40:08;;;;;;;2.43;1.37;;;15.20;99.90;;;;;;5058491;28;20183;-94
2023/12/31 01:42:37;;;;;;;1.33;1.20;;;15.20;99.90;;;;;;5072495;28;20206;-93
2023/12/31 01:45:21;;;;;;;1.57;1.10;;;15.20;99.90;;;;;;5058537;28;20376;-94
2023/12/31 01:48:20;;;;;;;1.37;1.20;;;15.20;99.90;;;;;;5071276;28;20459;-94
2023/12/31 01:51:07;;;;;;;1.47;1.20;;;15.20;99.90;;;;;;5055138;28;20191;-94
2023/12/31 01:53:36;;;;;;;1.73;1.23;;;15.20;99.90;;;;;;5068617;28;20206;-94
2023/12/31 01:56:14;;;;;;;1.30;1.20;;;15.20;99.90;;;;;;5060046;28;20179;-94
2023/12/31 01:58:45;;;;;;;1.23;1.10;;;15.20;99.90;;;;;;5069170;28;20194;-93
2023/12/31 02:01:16;;;;;;;1.23;1.13;;;15.20;99.90;;;;;;5061945;28;20203;-94
2023/12/31 02:03:50;;;;;;;2.47;1.30;;;15.20;99.90;;;;;;5071211;28;20191;-94
2023/12/31 02:06:21;;;;;;;1.23;1.13;;;15.20;99.90;;;;;;5060431;28;20180;-94
2023/12/31 02:08:49;;;;;;;2.00;1.30;;;15.20;99.90;;;;;;5060575;28;20178;-95
2023/12/31 02:11:18;;;;;;;1.73;1.30;;;15.20;99.90;;;;;;5060263;28;20257;-94
2023/12/31 02:13:48;;;;;;;1.57;1.23;;;15.20;99.90;;;;;;5071011;28;20576;-94
2023/12/31 02:16:17;;;;;;;1.10;1.07;;;15.20;99.90;;;;;;5059702;28;20187;-94
2023/12/31 02:18:46;;;;;;;1.17;1.07;;;15.20;99.90;;;;;;5077482;28;20182;-93
2023/12/31 02:21:16;;;;;;;1.60;1.20;;;15.20;99.90;;;;;;5080730;28;20224;-94
2023/12/31 02:23:42;;;;;;;1.30;1.20;;;15.20;99.90;;;;;;5065980;28;20200;-93
2023/12/31 02:26:15;;;;;;;1.60;1.30;;;15.20;99.90;;;;;;5080448;28;20167;-94
2023/12/31 02:28:43;;;;;;;1.17;1.00;;;15.20;99.90;;;;;;5068397;28;20472;-94
2023/12/31 02:31:24;;;;;;;1.97;1.20;;;15.20;99.90;;;;;;5081730;28;20217;-93
2023/12/31 02:33:52;;;;;;;1.57;1.33;;;15.20;99.90;;;;;;5074015;28;20174;-94
2023/12/31 02:36:19;;;;;;;1.30;1.20;;;15.20;99.90;;;;;;5059985;28;20266;-94
2023/12/31 02:38:45;;;;;;;1.43;1.20;;;15.20;99.90;;;;;;5062049;28;20168;-94
2023/12/31 02:41:14;;;;;;;1.53;1.30;;;15.20;99.90;;;;;;5075942;28;20453;-93
2023/12/31 02:43:42;;;;;;;1.60;1.10;;;15.20;99.90;;;;;;5077115;28;20195;-94
2023/12/31 02:46:12;;;;;;;1.20;1.10;;;15.20;99.90;;;;;;5062968;28;20213;-93
2023/12/31 02:48:38;;;;;;;1.27;1.17;;;15.20;99.90;;;;;;5064256;28;20163;-94
2023/12/31 02:51:08;;;;;;;1.33;1.10;;;15.20;99.90;;;;;;5080420;28;20269;-94
2023/12/31 02:53:36;;;;;;;1.30;1.20;;;15.20;99.90;;;;;;5076164;28;20164;-94
2023/12/31 02:56:05;;;;;;;1.20;1.10;;;15.20;99.90;;;;;;5068325;28;20291;-94
2023/12/31 02:58:40;;;;;;;1.20;1.10;;;15.20;99.90;;;;;;5074886;28;20421;-95
2023/12/31 03:01:24;;;;;;;1.53;1.20;;;15.20;99.90;;;;;;5067720;28;20173;-94
2023/12/31 03:03:53;;;;;;;1.30;1.20;;;15.20;99.90;;;;;;5074676;28;20194;-94
2023/12/31 03:06:21;;;;;;;1.17;1.07;;;15.20;99.90;;;;;;5069482;28;20175;-94
2023/12/31 03:08:47;;;;;;;1.77;1.33;;;15.20;99.90;;;;;;5076744;28;20191;-94
2023/12/31 03:11:13;;;;;;;1.13;1.03;;;15.20;99.90;;;;;;5079497;28;20611;-94
2023/12/31 03:13:39;;;;;;;1.37;0.90;;;15.20;99.90;;;;;;5078359;28;20204;-94
2023/12/31 03:16:10;;;;;;;1.50;1.20;;;15.20;99.90;;;;;;5070784;28;20193;-94
2023/12/31 03:18:42;;;;;;;1.23;1.13;;;15.10;99.90;;;;;;5081743;28;20175;-94
2023/12/31 03:21:16;;;;;;;1.77;1.30;;;15.10;99.90;;;;;;5065206;28;20179;-93
2023/12/31 03:23:45;;;;;;;1.10;1.00;;;15.10;99.90;;;;;;5076102;28;20304;-94
2023/12/31 03:26:17;;;;;;;1.03;1.00;;;15.10;99.90;;;;;;5062146;28;20210;-94
2023/12/31 03:28:42;;;;;;;1.57;1.10;;;15.20;99.90;;;;;;5061624;28;20247;-95
2023/12/31 03:31:14;;;;;;;1.20;1.10;;;15.10;99.90;;;;;;5066589;28;20207;-94
2023/12/31 03:34:06;;;;;;;1.13;1.03;;;15.20;99.90;;;;;;5080624;28;20175;-94
2023/12/31 03:36:37;;;;;;;1.20;1.10;;;15.20;99.90;;;;;;5057399;28;20186;-94
2023/12/31 03:39:41;;;;;;;1.30;1.10;;;15.20;99.90;;;;;;5064179;28;20168;-95
2023/12/31 03:42:10;;;;;;;1.20;1.10;;;15.10;99.90;;;;;;4983548;28;20217;-93
2023/12/31 03:44:36;;;;;;;1.37;1.20;;;15.20;99.90;;;;;;5060550;28;20176;-94
2023/12/31 03:47:04;;;;;;;1.20;1.10;;;15.20;99.90;;;;;;5065549;28;20178;-93
2023/12/31 03:49:36;;;;;;;1.60;1.23;;;15.20;99.90;;;;;;5080417;28;20167;-94
2023/12/31 03:52:06;;;;;;;2.33;1.10;;;15.10;99.90;;;;;;5063565;28;20550;-96
2023/12/31 03:54:32;;;;;;;1.23;1.10;;;15.10;99.90;;;;;;5061596;28;20393;-94
2023/12/31 03:57:01;;;;;;;1.37;1.00;;;15.10;99.90;;;;;;5066602;28;20211;-94
2023/12/31 03:59:27;;;;;;;1.23;1.13;;;15.10;99.90;;;;;;5081021;28;20198;-94
2023/12/31 04:01:58;;;;;;;1.27;1.13;;;15.10;99.90;;;;;;5071237;28;20186;-95
2023/12/31 04:04:26;;;;;;;1.30;0.97;;;15.10;99.90;;;;;;5046066;28;20176;-94
2023/12/31 04:06:55;;;;;;;2.47;1.20;;;15.10;99.90;;;;;;5070109;28;20455;-94
2023/12/31 04:09:29;;;;;;;2.30;1.30;;;15.10;99.90;;;;;;5065956;28;20174;-94
2023/12/31 04:12:10;;;;;;;1.67;1.20;;;15.10;99.90;;;;;;5070553;28;20248;-94
2023/12/31 04:14:39;;;;;;;1.30;1.20;;;15.10;99.90;;;;;;5083533;28;20167;-94
2023/12/31 04:17:16;;;;;;;1.20;1.10;;;15.10;99.90;;;;;;5079816;28;20507;-94
2023/12/31 04:19:44;;;;;;;1.50;1.20;;;15.10;99.90;;;;;;5066358;28;20180;-94
2023/12/31 04:22:13;;;;;;;1.20;1.10;;;15.10;99.90;;;;;;5072358;28;20232;-94
2023/12/31 04:24:39;;;;;;;1.13;1.03;;;15.10;99.90;;;;;;5068520;28;20191;-94
2023/12/31 04:27:31;;;;;;;1.60;1.17;;;15.10;99.90;;;;;;5068302;28;20266;-95
2023/12/31 04:30:02;;;;;;;1.30;1.20;;;15.10;99.90;;;;;;5086414;28;20171;-96
2023/12/31 04:32:28;;;;;;;1.37;1.20;;;15.10;99.90;;;;;;5082711;28;20338;-94
2023/12/31 04:35:03;;;;;;;1.93;1.33;;;15.10;99.90;;;;;;5071359;28;20175;-94
2023/12/31 04:37:32;;;;;;;1.10;1.00;;;15.10;99.90;;;;;;5074952;28;20202;-95
2023/12/31 04:40:09;;;;;;;1.10;1.00;;;15.10;99.90;;;;;;5070825;28;20678;-94
2023/12/31 04:42:40;;;;;;;1.20;1.10;;;15.10;99.90;;;;;;5070519;28;20213;-94
2023/12/31 04:45:09;;;;;;;1.60;1.10;;;15.10;99.90;;;;;;5079928;28;20214;-95
2023/12/31 04:47:59;;;;;;;1.17;1.03;;;15.10;99.90;;;;;;5083065;28;20563;-94
2023/12/31 04:50:28;;;;;;;1.10;1.00;;;15.10;99.90;;;;;;5071221;28;20580;-95
2023/12/31 04:52:58;;;;;;;1.10;1.00;;;15.10;99.90;;;;;;5079442;28;20195;-95
2023/12/31 04:55:24;;;;;;;1.13;1.03;;;15.10;99.90;;;;;;5069571;28;20168;-95
2023/12/31 04:57:58;;;;;;;1.13;1.03;;;15.10;99.90;;;;;;5071631;28;20167;-95
2023/12/31 05:00:27;;;;;;;1.07;1.00;;;15.10;99.90;;;;;;5072198;28;20483;-95
2023/12/31 05:02:58;;;;;;;1.20;1.10;;;15.10;99.90;;;;;;5068135;28;20200;-94
2023/12/31 05:05:26;;;;;;;1.50;1.00;;;15.10;99.90;;;;;;5068037;28;20179;-95
2023/12/31 05:08:21;;;;;;;1.20;1.10;;;15.10;99.90;;;;;;5067311;28;20521;-95
2023/12/31 05:10:55;;;;;;;1.00;1.00;;;15.10;99.90;;;;;;5062701;28;20507;-95
2023/12/31 05:13:30;;;;;;;1.67;1.23;;;15.10;99.90;;;;;;5077061;28;20163;-94
2023/12/31 05:15:58;;;;;;;1.17;1.07;;;15.10;99.90;;;;;;5078607;28;20200;-94
2023/12/31 05:18:27;;;;;;;1.20;1.10;;;15.10;99.90;;;;;;5077222;28;20214;-94
2023/12/31 05:21:02;;;;;;;1.10;1.00;;;15.10;99.90;;;;;;5077738;28;20179;-95
2023/12/31 05:23:34;;;;;;;2.93;1.20;;;15.10;99.90;;;;;;5081532;28;20202;-95
2023/12/31 05:25:59;;;;;;;1.40;1.00;;;15.10;99.90;;;;;;5073255;28;20171;-94
2023/12/31 05:28:31;;;;;;;1.30;1.10;;;15.10;99.90;;;;;;5081723;28;20180;-94
2023/12/31 05:31:00;;;;;;;1.17;1.03;;;15.10;99.90;;;;;;5071612;28;20266;-94
2023/12/31 05:33:29;;;;;;;1.20;1.10;;;15.10;99.90;;;;;;5065103;28;20282;-94
2023/12/31 05:36:00;;;;;;;1.00;1.00;;;15.10;99.90;;;;;;5071011;28;20171;-94
2023/12/31 05:38:35;;;;;;;1.20;1.10;;;15.10;99.90;;;;;;5082746;28;20175;-95
2023/12/31 05:41:05;;;;;;;1.20;1.10;;;15.10;99.90;;;;;;5073255;28;20174;-94
2023/12/31 05:43:49;;;;;;;0.90;0.90;;;15.10;99.90;;;;;;5084688;27;20187;-94
2023/12/31 05:46:58;;;;;;;0.93;0.93;;;15.10;99.90;;;;;;5072873;28;20175;-94
2023/12/31 05:49:35;;;;;;;1.13;1.03;;;15.10;99.90;;;;;;5065880;28;20175;-94
2023/12/31 05:55:36;;;;;;;0.97;0.93;;;15.20;99.90;;;;;;5021087;28;20220;-94
2023/12/31 05:58:08;;;;;;;1.20;1.10;;;15.20;99.90;;;;;;5064219;28;20239;-94
2023/12/31 06:00:33;;;;;;;1.20;1.00;;;15.20;99.90;;;;;;5071279;28;20220;-94
2023/12/31 06:02:59;;;;;;;1.20;1.10;;;15.20;99.90;;;;;;5062057;28;20265;-95
2023/12/31 06:05:25;;;;;;;2.27;1.17;;;15.20;99.90;;;;;;5074851;28;20229;-94
2023/12/31 06:07:51;;;;;;;1.00;1.00;;;15.20;99.90;;;;;;5078392;28;20179;-94
2023/12/31 06:10:20;;;;;;;1.37;0.97;;;15.20;99.90;;;;;;5079766;28;20177;-95
2023/12/31 06:12:46;;;;;;;1.00;0.90;;;15.20;99.90;;;;;;5064040;28;20175;-94
2023/12/31 06:15:21;;;;;;;1.53;1.10;;;15.20;99.90;;;;;;5062588;28;20482;-95
2023/12/31 06:17:52;;;;;;;1.07;1.00;;;15.30;99.90;;;;;;5071649;28;20270;-94
2023/12/31 06:20:32;;;;;;;1.10;1.00;;;15.30;99.90;;;;;;5064524;28;20167;-94
2023/12/31 06:23:09;;;;;;;1.20;1.10;;;15.30;99.90;;;;;;5072980;28;20202;-94
2023/12/31 06:25:42;;;;;;;1.17;1.07;;;15.40;99.90;;;;;;5074723;28;20167;-94
2023/12/31 06:28:28;;;;;;;1.10;1.00;;;15.40;99.90;;;;;;5069927;28;20266;-94
2023/12/31 06:31:03;;;;;;;1.30;1.20;;;15.40;99.90;;;;;;5065403;28;20215;-94
2023/12/31 06:33:58;;;;;;;1.20;1.10;;;15.40;99.90;;;;;;5074309;28;20228;-95
2023/12/31 06:36:32;;;;;;;1.23;1.13;;;15.40;99.90;;;;;;5074740;28;20174;-94
2023/12/31 06:41:58;;;;;;;1.33;1.23;;;15.40;99.80;;;;;;5017445;28;20205;-94
2023/12/31 06:44:30;;;;;;;0.90;0.90;;;15.50;99.80;;;;;;5002600;28;20266;-94
2023/12/31 06:47:07;;;;;;;1.77;1.40;;;15.40;99.80;;;;;;5001673;28;20193;-94
2023/12/31 06:50:02;;;;;;;1.10;1.00;;;15.40;99.80;;;;;;5002959;28;20186;-94
2023/12/31 06:53:04;;;;;;;1.17;1.07;;;15.40;99.90;;;;;;5019265;28;20191;-94
2023/12/31 06:55:32;;;;;;;1.30;1.20;;;15.30;99.90;;;;;;4941312;29;20174;-94
2023/12/31 06:58:01;;;;;;;1.10;1.00;;;15.30;99.90;;;;;;4960050;28;20483;-94
2023/12/31 07:00:35;;;;;;;1.83;1.20;;;15.30;99.90;;;;;;4959618;28;20186;-94
2023/12/31 07:03:39;;;;;;;1.13;1.03;;;15.20;99.90;;;;;;5065163;28;20237;-95
2023/12/31 07:06:11;;;;;;;1.27;1.17;;;15.20;99.90;;;;;;5072786;28;20249;-94
2023/12/31 07:08:43;;;;;;;1.30;1.20;;;15.10;99.90;;;;;;5068703;28;20190;-94
2023/12/31 07:11:32;;;;;;;1.20;1.10;;;15.10;99.90;;;;;;5085230;28;20199;-94
2023/12/31 07:14:21;;;;;;;1.47;1.13;;;15.10;99.90;;;;;;5082121;28;20475;-95
2023/12/31 07:17:14;;;;;;;1.33;1.23;;;15.00;99.90;;;;;;5069458;28;20171;-95
2023/12/31 07:19:47;;;;;;;1.20;1.10;;;15.00;99.90;;;;;;5084629;28;20410;-94
2023/12/31 07:22:19;;;;;;;1.80;1.30;;;15.00;99.90;;;;;;5085219;28;20181;-95
2023/12/31 07:25:15;;;;;;;1.53;1.20;;;15.00;99.90;;;;;;5074642;28;20173;-95
2023/12/31 07:27:49;;;;;;;1.87;1.10;;;15.00;99.90;;;;;;5071819;28;20191;-94
2023/12/31 07:30:46;;;;;;;1.40;1.10;;;15.00;99.90;;;;;;5088485;28;20166;-95
2023/12/31 07:33:18;;;;;;;1.57;1.30;;;15.00;99.90;;;;;;5085116;28;20181;-95
2023/12/31 07:35:54;;;;;;;1.70;1.17;;;15.00;99.90;;;;;;5074333;28;20636;-96
2023/12/31 07:41:52;;;;;;;1.37;1.27;;;15.20;99.90;;;;;;5103592;28;20463;-95
2023/12/31 07:44:33;;;;;;;1.33;1.23;;;15.30;99.90;;;;;;5085933;28;20222;-95
2023/12/31 07:47:03;;;;;;;1.37;1.27;;;15.30;99.90;;;;;;5051089;28;20514;-94
2023/12/31 07:49:30;;;;;;;1.20;1.10;;;15.40;99.90;;;;;;5078621;28;20183;-95
2023/12/31 07:51:59;;;;;;;1.20;1.10;;;15.40;99.70;;;;;;5050694;28;20153;-95
2023/12/31 07:55:00;;;;;;;2.03;1.40;;;15.50;99.60;;;;;;5072398;28;20419;-94
2023/12/31 07:57:28;;;;;;;1.47;1.20;;;15.50;99.50;;;;;;5014984;28;20160;-94
2023/12/31 07:59:57;;;;;;;1.40;1.30;;;15.50;99.30;;;;;;5097226;28;20226;-95
2023/12/31 08:02:26;;;;;;;1.30;1.20;;;15.60;99.20;;;;;;5086816;28;20199;-95
2023/12/31 08:05:39;;;;;;;1.50;1.30;;;15.60;99.10;;;;;;5080071;28;20232;-94
2023/12/31 08:08:07;;;;;;;1.40;1.30;;;15.60;99.30;;;;;;5084537;28;20391;-94
2023/12/31 08:10:37;;;;;;;1.20;1.10;;;15.60;99.10;;;;;;5073900;28;20172;-95
2023/12/31 08:13:11;;;;;;;1.40;1.30;;;15.60;99.10;;;;;;5063603;28;20171;-94
2023/12/31 08:15:39;;;;;;;1.50;1.40;;;15.50;99.00;;;;;;5074287;28;20174;-95
2023/12/31 08:18:08;;;;;;;1.40;1.30;;;15.50;99.20;;;;;;5067012;28;20171;-95
2023/12/31 08:20:38;;;;;;;2.20;1.50;;;15.40;99.30;;;;;;5053157;28;20183;-95
2023/12/31 08:23:07;;;;;;;1.40;1.30;;;15.30;99.30;;;;;;5067666;28;20301;-95
2023/12/31 08:25:36;;;;;;;1.73;1.50;;;15.30;99.40;;;;;;5083977;28;20163;-95
2023/12/31 08:28:02;;;;;;;1.67;1.50;;;15.30;99.50;;;;;;5076473;28;20206;-95
2023/12/31 08:30:38;;;;;;;1.80;1.60;;;15.20;99.50;;;;;;5087083;28;20325;-95
2023/12/31 08:33:07;;;;;;;1.63;1.53;;;15.20;99.50;;;;;;5076336;28;20175;-95
2023/12/31 08:35:43;;;;;;;2.60;1.67;;;15.20;99.70;;;;;;5084930;28;20188;-95
2023/12/31 08:38:31;;;;;;;2.67;1.57;;;15.20;99.80;;;;;;5109038;27;20174;-95
2023/12/31 08:41:09;;;;;;;1.63;1.53;;;15.20;99.60;;;;;;5087124;28;20232;-95
2023/12/31 08:43:38;;;;;;;2.00;1.60;;;15.10;99.80;;;;;;5084247;28;20214;-95
2023/12/31 08:46:08;;;;;;;1.37;1.27;;;15.10;99.80;;;;;;5086567;28;20175;-95
2023/12/31 08:48:57;;;;;;;2.27;1.80;;;15.10;99.80;;;;;;5094252;28;20175;-95
2023/12/31 08:51:35;;;;;;;1.77;1.53;;;15.10;99.90;;;;;;5068762;28;20168;-94
2023/12/31 08:54:07;;;;;;;1.73;1.60;;;15.20;99.90;;;;;;5077935;28;20220;-95
2023/12/31 08:56:46;;;;;;;1.87;1.67;;;15.20;99.90;;;;;;5092093;28;20182;-95
2023/12/31 09:02:04;;;;;;;1.70;1.60;;;15.20;99.80;;;;;;5094026;28;20196;-96
2023/12/31 09:04:34;;;;;;;1.80;1.70;;;15.30;99.70;;;;;;5074830;28;20235;-93
2023/12/31 09:07:15;;;;;;;2.00;1.80;;;15.30;99.70;;;;;;5086563;28;20187;-94
2023/12/31 09:09:42;;;;;;;3.67;1.80;;;15.30;99.80;;;;;;5068779;28;20168;-94
2023/12/31 09:12:11;;;;;;;2.27;1.80;;;15.40;99.90;;;;;;5072319;28;20168;-95
2023/12/31 09:14:39;;;;;;;1.70;1.60;;;15.40;99.80;;;;;;5074665;28;20178;-95
2023/12/31 09:17:21;;;;;;;2.40;1.80;;;15.50;99.80;;;;;;5082068;28;20167;-96
2023/12/31 09:19:47;;;;;;;1.73;1.60;;;15.50;99.80;;;;;;5089344;28;20199;-94
2023/12/31 09:22:29;;;;;;;2.50;1.80;;;15.50;99.80;;;;;;5072166;28;20184;-95
2023/12/31 09:24:57;;;;;;;2.63;1.70;;;15.50;99.80;;;;;;5094695;27;20190;-95
2023/12/31 09:27:26;;;;;;;1.63;1.53;;;15.50;99.70;;;;;;5086170;28;20167;-94
2023/12/31 09:29:55;;;;;;;3.43;1.80;;;15.50;99.80;;;;;;5067755;28;20694;-95
2023/12/31 09:32:29;;;;;;;3.50;1.77;;;15.50;99.90;;;;;;5078550;28;20429;-94
2023/12/31 09:34:55;;;;;;;2.13;1.90;;;15.50;99.90;;;;;;5084983;28;20177;-95
2023/12/31 09:37:21;;;;;;;4.57;1.67;;;15.50;99.80;;;;;;5081768;28;20163;-94
2023/12/31 09:39:53;;;;;;;2.27;1.80;;;15.50;99.80;;;;;;5083964;28;20206;-94
2023/12/31 09:42:54;;;;;;;2.37;1.67;;;15.40;99.80;;;;;;5089225;28;20179;-95
2023/12/31 09:45:24;;;;;;;3.07;1.60;;;15.40;99.60;;;;;;5072007;28;20163;-94
2023/12/31 09:47:59;;;;;;;2.63;1.80;;;15.40;99.60;;;;;;5073063;28;20163;-94
2023/12/31 09:51:00;;;;;;;1.87;1.50;;;15.40;99.80;;;;;;5070672;28;20168;-94
2023/12/31 09:54:02;;;;;;;4.07;1.77;;;15.40;99.80;;;;;;4986859;28;20282;-94
2023/12/31 09:56:49;;;;;;;5.20;1.70;;;15.50;99.90;;;;;;4931935;28;20307;-95
2023/12/31 09:59:22;;;;;;;5.63;2.30;;;15.50;99.90;;;;;;5085464;28;20179;-95
2023/12/31 10:01:58;;;;;;;2.93;1.90;;;15.50;99.90;;;;;;5067148;28;20219;-94
2023/12/31 10:04:30;;;;;;;3.67;1.70;;;15.50;99.80;;;;;;5071492;28;20183;-95
2023/12/31 10:07:12;;;;;;;6.27;1.93;;;15.60;99.80;;;;;;5072812;28;20191;-94
2023/12/31 10:09:40;;;;;;;3.17;1.90;;;15.60;99.70;;;;;;5049387;28;20152;-95
2023/12/31 10:12:10;;;;;;;4.53;1.83;;;15.60;99.70;;;;;;5054916;28;20250;-95
2023/12/31 10:14:58;;;;;;;6.30;1.70;;;15.60;99.60;;;;;;5051115;28;20218;-94
2023/12/31 10:17:28;;;;;;;2.93;1.97;;;15.50;99.60;;;;;;5052845;28;20175;-94
2023/12/31 10:20:13;;;;;;;3.80;1.83;;;15.50;99.60;;;;;;5073397;28;20193;-95
2023/12/31 10:23:04;;;;;;;5.43;1.90;;;15.50;99.50;;;;;;5072328;28;20199;-94
2023/12/31 10:26:01;;;;;;;5.37;2.00;;;15.50;99.40;;;;;;5065797;28;20328;-95
2023/12/31 10:28:37;;;;;;;4.50;2.00;;;15.50;99.50;;;;;;5067868;28;20183;-94
2023/12/31 10:31:06;;;;;;;1.60;1.50;;;15.60;99.50;;;;;;5047100;28;20168;-94
2023/12/31 10:33:37;;;;;;;2.83;1.90;;;15.60;99.40;;;;;;5058653;28;20241;-94
2023/12/31 10:36:13;;;;;;;2.00;1.80;;;15.70;99.00;;;;;;5065478;28;20171;-94
2023/12/31 10:38:54;;;;;;;3.57;1.60;;;15.70;98.80;;;;;;5073134;28;20222;-95
2023/12/31 10:41:25;;;;;;;2.07;1.90;;;15.80;98.40;;;;;;5069863;28;20179;-94
2023/12/31 10:44:16;;;;;;;3.67;2.00;;;15.90;98.00;;;;;;5065339;28;20492;-95
2023/12/31 10:46:48;;;;;;;4.03;1.90;;;15.90;97.90;;;;;;5045855;28;20235;-96
2023/12/31 10:49:21;;;;;;;3.97;2.20;;;15.90;97.90;;;;;;5050734;28;20168;-94
2023/12/31 10:52:14;;;;;;;2.97;2.10;;;15.90;97.90;;;;;;5054889;28;20184;-95
2023/12/31 10:55:00;;;;;;;3.07;1.90;;;15.90;97.90;;;;;;5046069;28;20209;-95
2023/12/31 10:57:26;;;;;;;2.80;1.60;;;15.90;97.80;;;;;;5031865;28;20234;-94
2023/12/31 11:00:40;;;;;;;2.23;1.90;;;15.80;97.80;;;;;;5034044;28;20190;-94
2023/12/31 11:03:52;;;;;;;2.10;1.87;;;15.80;97.90;;;;;;4982565;28;20679;-95
2023/12/31 11:06:42;;;;;;;2.43;2.17;;;15.70;97.90;;;;;;5033724;28;20200;-95
2023/12/31 11:09:09;;;;;;;2.20;1.90;;;15.70;98.00;;;;;;5041378;28;20196;-95
2023/12/31 11:11:38;;;;;;;2.43;1.73;;;15.70;98.10;;;;;;5033140;28;20180;-95
2023/12/31 11:14:42;;;;;;;3.20;2.30;;;15.60;98.10;;;;;;5042428;28;20312;-94
2023/12/31 11:17:50;;;;;;;2.57;1.87;;;15.60;98.10;;;;;;4968388;28;20190;-95
2023/12/31 11:21:04;;;;;;;2.17;1.97;;;15.60;98.10;;;;;;4996169;28;20186;-94
2023/12/31 11:24:14;;;;;;;2.13;1.93;;;15.60;98.10;;;;;;4929861;29;20220;-94
2023/12/31 11:27:02;;;;;;;1.87;1.77;;;15.50;98.10;;;;;;4984040;28;20191;-95
2023/12/31 11:29:28;;;;;;;2.00;1.80;;;15.50;98.20;;;;;;5041555;23;20236;-1
2023/12/31 11:31:53;;;;;;;2.07;1.80;;;15.40;98.10;;;;;;5056782;28;20169;-2
2023/12/31 11:34:19;;;;;;;5.93;2.10;;;15.50;97.90;;;;;;5039767;28;20245;-1
2023/12/31 11:36:45;;;;;;;2.83;1.50;;;15.60;96.80;;;;;;5056849;28;20179;-1
2023/12/31 11:39:14;;;;;;;3.17;1.83;;;15.70;95.40;;;;;;5056817;28;20235;-1
2023/12/31 11:41:45;;;;;;;8.03;2.53;;;15.90;94.70;;;;;;5057121;28;20153;-1
2023/12/31 11:44:37;;;;;;;9.50;3.10;;;15.90;94.30;;;;;;5056850;28;20219;-1
2023/12/31 11:47:29;;;;;;;5.60;2.37;;;16.00;93.90;;;;;;5048616;28;20181;-2
2023/12/31 11:49:58;;;;;;;6.00;2.23;;;16.00;93.60;;;;;;5056970;28;20156;-2
2023/12/31 11:52:59;;;;;;;10.77;2.60;;;16.10;94.70;;;;;;5057323;28;20633;-2
2023/12/31 11:55:36;;;;;;;12.30;2.40;;;16.20;95.80;;;;;;5018395;28;20450;-2
2023/12/31 11:58:05;;;;;;;12.03;2.70;;;16.30;95.60;;;;;;5056601;28;20148;-2
2023/12/31 12:00:31;;;;;;;8.60;2.00;;;16.40;95.20;;;;;;5056444;28;20255;-2
2023/12/31 12:03:01;;;;;;;12.07;2.20;;;16.40;94.70;;;;;;5056688;28;20275;-2
2023/12/31 12:05:27;;;;;;;9.07;2.10;;;16.50;94.60;;;;;;5039826;28;20196;-2
2023/12/31 12:08:11;;;;;;;6.23;1.80;;;16.40;94.10;;;;;;5056092;28;20592;-2
2023/12/31 12:10:42;;;;;;;6.70;1.70;;;16.40;93.60;;;;;;5057154;28;20430;-2
2023/12/31 12:13:27;;;;;;;6.77;2.10;;;16.40;93.30;;;;;;5072162;28;20176;-2
2023/12/31 12:16:02;;;;;;;11.37;2.63;;;16.40;93.00;;;;;;5039152;28;20176;-2
2023/12/31 12:18:27;;;;;;;12.33;3.50;;;16.40;92.70;;;;;;5056027;28;20291;-2
2023/12/31 12:20:55;;;;;;;14.47;3.70;;;16.40;92.80;;;;;;5056628;28;20271;-2
2023/12/31 12:23:25;;;;;;;9.50;3.67;;;16.40;92.80;;;;;;5058287;28;20184;-2
2023/12/31 12:25:52;;;;;;;7.57;3.03;;;16.30;93.00;;;;;;5060282;28;20187;-2
2023/12/31 12:28:19;;;;;;;6.63;2.30;;;16.30;92.90;;;;;;5060411;28;20176;-2
2023/12/31 12:30:44;;;;;;;8.60;2.53;;;16.30;93.00;;;;;;5060970;28;20199;-2
2023/12/31 12:33:13;;;;;;;13.50;2.63;;;16.30;93.00;;;;;;5060475;28;20152;-2
2023/12/31 12:35:46;;;;;;;5.60;2.20;;;16.30;93.00;;;;;;5076308;28;20188;-2
2023/12/31 12:38:14;;;;;;;7.17;1.90;;;16.30;93.00;;;;;;5042909;28;20180;-2
2023/12/31 12:40:44;;;;;;;6.47;1.90;;;16.30;93.00;;;;;;5042191;28;20206;-3
2023/12/31 12:43:12;;;;;;;4.50;1.90;;;16.30;92.90;;;;;;5042600;28;20314;-2
2023/12/31 12:45:41;;;;;;;5.33;1.63;;;16.30;92.80;;;;;;5059871;28;20237;-2
2023/12/31 12:48:10;;;;;;;2.43;1.27;;;16.30;92.70;;;;;;5059754;28;20179;-2
2023/12/31 12:50:36;;;;;;;2.60;1.33;;;16.30;92.70;;;;;;5042921;28;20636;-2
2023/12/31 12:53:02;;;;;;;2.10;1.30;;;16.30;92.60;;;;;;5042633;28;20172;-2
2023/12/31 12:55:31;;;;;;;2.77;1.30;;;16.20;92.60;;;;;;5059556;28;20168;-2
2023/12/31 12:57:59;;;;;;;1.70;1.10;;;16.20;92.60;;;;;;5059528;28;20658;-3
2023/12/31 13:00:28;;;;;;;2.03;1.07;;;16.30;92.60;;;;;;5059758;28;20176;-2
2023/12/31 13:02:57;;;;;;;1.80;1.00;;;16.30;92.70;;;;;;5042265;28;20192;-2
2023/12/31 13:05:23;;;;;;;2.20;1.00;;;16.30;92.90;;;;;;5059410;28;20161;-3
2023/12/31 13:07:49;;;;;;;2.40;1.00;;;16.30;92.90;;;;;;5058804;28;20225;-2
2023/12/31 13:10:14;;;;;;;1.43;1.20;;;16.30;93.00;;;;;;5059777;28;20165;-2
2023/12/31 13:12:43;;;;;;;1.30;0.90;;;16.30;93.20;;;;;;5041656;28;20176;-2
2023/12/31 13:15:09;;;;;;;1.83;0.83;;;16.30;93.20;;;;;;5042515;28;20416;-2
2023/12/31 13:17:35;;;;;;;1.10;1.00;;;16.30;93.30;;;;;;5042022;28;20180;-2
2023/12/31 13:20:01;;;;;;;1.27;0.90;;;16.20;93.40;;;;;;5042237;28;20622;-2
2023/12/31 13:22:33;;;;;;;1.30;0.90;;;16.20;93.50;;;;;;5059883;28;20179;-2
2023/12/31 13:24:58;;;;;;;1.03;0.80;;;16.20;93.50;;;;;;5041356;28;20187;-2
2023/12/31 13:27:29;;;;;;;2.73;1.10;;;16.30;93.70;;;;;;5058990;28;20577;-2
2023/12/31 13:29:55;;;;;;;2.97;1.00;;;16.20;93.90;;;;;;5059094;28;20569;-2
2023/12/31 13:32:21;;;;;;;2.10;1.30;;;16.20;94.00;;;;;;5059515;28;20248;-2
2023/12/31 13:34:47;;;;;;;3.00;1.40;;;16.20;94.20;;;;;;5040512;28;20179;-3
2023/12/31 13:37:13;;;;;;;9.00;1.50;;;16.20;94.50;;;;;;5058342;28;20173;-2
2023/12/31 13:39:39;;;;;;;9.03;1.30;;;16.20;95.10;;;;;;5042172;28;20458;-3
2023/12/31 13:42:05;;;;;;;3.33;1.40;;;16.20;95.60;;;;;;5041534;28;20644;-2
2023/12/31 13:44:44;;;;;;;3.60;1.30;;;16.30;95.90;;;;;;5059126;28;20447;-2
2023/12/31 13:47:12;;;;;;;4.77;1.27;;;16.30;96.00;;;;;;5042247;28;20168;-2